METAR Data
IDs: Format: Raw Decoded Include TAF

Data at: 1229 UTC 21 Oct 2018

METAR for:KHLX (Hillsville/Twin Cnty, VA, US)
Text:KHLX 211215Z AUTO 34009KT 10SM OVC025 01/M03 A3013 RMK AO2 T00101033
Temperature: 1.0°C ( 34°F)
Dewpoint: -3.3°C ( 26°F) [RH = 73%]
Pressure (altimeter):30.13 inches Hg (1020.4 mb)
Winds:from the NNW (340 degrees) at 10 MPH (9 knots; 4.6 m/s)
Visibility:10 or more sm (16+ km)
Ceiling:2500 feet AGL
Clouds: overcast cloud deck at 2500 feet AGL
QC Flag:automated observation with no human augmentation